map of PIK home
PIK - Airport
Location
City:  Glasgow, Ayr, Scotland, United Kingdom
Name:Prestwick
ICAO:EGPK
IATA:PIK

Details
Type:Airport (Aerodrome, Airfield)
Use:Public/Civil, International (customs port of entry)
Latitude:5530'34"N (55.509444)
Longitude:435'12"W (-4.586666)
Datum:WGS 1984
Elevation:65 ft (20 m)
Variation:2.70W (WMM2015 magnetic declination)
0.17 annual change
Runways:2
Longest:9800 × 150 ft (2987 × 45.5 m), paved

Time
Time Zone:UTC+0 (DST+1)
Local Time:

Weather
METAR:EGPK 201720Z 33006KT 9999 FEW045 07/04 Q1028
TAF:EGPK 201659Z 2018/2118 33010KT 9999 FEW025
BECMG 2018/2021 VRB05KT

Related Locations
Nearby:
Farthest:SZS: 11758 mi / 18923 km
Ryan's Creek, Stewart Island, STL, NZ

Find:

   beyond  
but within

Other Information
Maps:
NOTAMs:
Links:
Sources:

  
flag of United Kingdom
flag of Scotland
  

Airport Diagram

Airport diagram for PIK

Larger airport diagram (OBSOLETE) from NGA

Sectional Chart

Flight Planning
at skyvector.com

Satellite Image

Google Maps Satellite view

 

Copyright © 2004-2018 Karl L. Swartz. All rights reserved.
The Great Circle Mapper name and logo are trademarks of the Great Circle Mapper.
All other trademarks mentioned herein belong to their respective owners.
Please see credits for attibutions and further copyright information.

  Follow gcmap on Facebook Follow gcmap on Twitter Follow gcmap on Google+ GCmap on LinkedIn

hCard Microformat

Geo Microformat